createdAt,value
2023-05-08T00:02:18.928Z,37.10
2023-05-08T00:04:46.763Z,36.40
2023-05-08T00:07:15.170Z,36.20
2023-05-08T00:09:43.034Z,34.40
2023-05-08T00:12:10.924Z,36.50
2023-05-08T00:14:38.853Z,36.40
2023-05-08T00:17:06.757Z,40.00
2023-05-08T00:19:34.581Z,49.40
2023-05-08T00:22:02.414Z,41.00
2023-05-08T00:24:30.286Z,45.40
2023-05-08T00:26:58.166Z,39.60
2023-05-08T00:29:26.367Z,38.50
2023-05-08T00:31:54.266Z,40.60
2023-05-08T00:34:22.182Z,44.30
2023-05-08T00:36:50.203Z,35.80
2023-05-08T00:39:18.625Z,35.20
2023-05-08T00:41:46.718Z,40.10
2023-05-08T00:44:14.593Z,45.30
2023-05-08T00:46:43.421Z,42.00
2023-05-08T00:49:14.482Z,41.50
2023-05-08T00:51:44.369Z,40.30
2023-05-08T00:54:12.461Z,39.60
2023-05-08T00:56:41.813Z,38.20
2023-05-08T00:59:16.933Z,36.60
2023-05-08T01:01:45.120Z,35.00
2023-05-08T01:04:13.181Z,34.60
2023-05-08T01:06:41.136Z,34.90
2023-05-08T01:09:08.987Z,34.90
2023-05-08T01:11:58.253Z,34.20
2023-05-08T01:14:34.731Z,34.20
2023-05-08T01:17:12.091Z,29.00
2023-05-08T01:20:04.109Z,28.20
2023-05-08T01:23:05.076Z,30.80
2023-05-08T01:26:03.448Z,30.00
2023-05-08T01:28:47.057Z,33.30
2023-05-08T01:31:21.862Z,27.50
2023-05-08T01:34:06.616Z,28.50
2023-05-08T01:36:41.676Z,30.70
2023-05-08T01:39:40.100Z,28.40
2023-05-08T01:42:29.131Z,29.80
2023-05-08T01:45:01.764Z,28.30
2023-05-08T01:47:33.545Z,25.00
2023-05-08T01:50:07.395Z,28.70
2023-05-08T01:52:48.992Z,29.20
2023-05-08T01:55:25.042Z,32.30
2023-05-08T01:57:56.637Z,31.20
2023-05-08T02:00:25.750Z,24.40
2023-05-08T02:02:54.342Z,28.20
2023-05-08T02:05:23.676Z,27.80
2023-05-08T02:07:52.428Z,26.20
2023-05-08T02:10:20.893Z,29.40
2023-05-08T02:12:49.923Z,24.50
2023-05-08T02:15:18.982Z,27.30
2023-05-08T02:17:49.089Z,27.20
2023-05-08T02:20:18.766Z,27.40
2023-05-08T02:22:49.420Z,30.00
2023-05-08T02:25:18.236Z,29.40
2023-05-08T02:27:48.326Z,28.90
2023-05-08T02:30:17.821Z,34.30
2023-05-08T02:32:48.333Z,28.50
2023-05-08T02:35:18.945Z,27.70
2023-05-08T02:37:55.942Z,25.30
2023-05-08T02:40:27.901Z,32.40
2023-05-08T02:42:55.942Z,32.60
2023-05-08T02:45:27.317Z,32.50
2023-05-08T02:48:15.491Z,29.40
2023-05-08T02:51:25.694Z,26.50
2023-05-08T02:53:59.754Z,25.90
2023-05-08T02:56:44.408Z,29.20
2023-05-08T02:59:20.754Z,30.70
2023-05-08T03:01:54.642Z,29.90
2023-05-08T03:04:29.191Z,34.20
2023-05-08T03:06:58.229Z,31.70
2023-05-08T03:09:34.437Z,32.80
2023-05-08T03:12:08.003Z,33.00
2023-05-08T03:14:41.590Z,30.30
2023-05-08T03:17:10.934Z,35.00
2023-05-08T03:19:39.387Z,34.00
2023-05-08T03:22:08.068Z,34.30
2023-05-08T03:24:37.130Z,30.90
2023-05-08T03:27:05.574Z,31.00
2023-05-08T03:29:34.142Z,27.50
2023-05-08T03:32:02.399Z,25.20
2023-05-08T03:34:30.503Z,30.50
2023-05-08T03:36:58.464Z,25.10
2023-05-08T03:39:27.049Z,27.00
2023-05-08T03:41:56.112Z,25.70
2023-05-08T03:44:25.067Z,27.10
2023-05-08T03:46:56.082Z,27.20
2023-05-08T03:49:26.481Z,25.40
2023-05-08T03:51:57.000Z,25.80
2023-05-08T03:54:25.686Z,25.30
2023-05-08T03:56:54.411Z,23.50
2023-05-08T03:59:41.796Z,26.40
2023-05-08T04:02:15.999Z,33.60
2023-05-08T04:04:46.170Z,31.80
2023-05-08T04:07:32.624Z,27.10
2023-05-08T04:10:09.299Z,27.90
2023-05-08T04:13:04.937Z,25.60
2023-05-08T04:15:43.828Z,24.20
2023-05-08T04:18:17.359Z,24.40
2023-05-08T04:20:48.368Z,21.10
2023-05-08T04:23:21.678Z,29.90
2023-05-08T04:25:51.972Z,39.30
2023-05-08T04:28:21.063Z,46.60
2023-05-08T04:30:49.690Z,42.60
2023-05-08T04:33:18.879Z,38.00
2023-05-08T04:35:47.225Z,32.40
2023-05-08T04:38:15.018Z,31.90
2023-05-08T04:40:42.862Z,24.90
2023-05-08T04:43:10.696Z,23.80
2023-05-08T04:45:38.629Z,31.30
2023-05-08T04:48:06.687Z,32.60
2023-05-08T04:50:34.564Z,35.80
2023-05-08T04:53:02.377Z,30.80
2023-05-08T04:55:30.319Z,25.20
2023-05-08T04:57:58.118Z,21.90
2023-05-08T05:00:25.979Z,21.90
2023-05-08T05:02:53.832Z,26.50
2023-05-08T05:05:21.817Z,24.00
2023-05-08T05:07:49.570Z,23.30
2023-05-08T05:10:17.672Z,29.60
2023-05-08T05:12:45.714Z,29.50
2023-05-08T05:15:13.845Z,25.20
2023-05-08T05:17:41.894Z,25.70
2023-05-08T05:20:10.696Z,23.20
2023-05-08T05:22:38.938Z,18.50
2023-05-08T05:25:07.147Z,20.20
2023-05-08T05:27:36.911Z,19.40
2023-05-08T05:30:05.540Z,20.10
2023-05-08T05:32:33.522Z,18.30
2023-05-08T05:35:01.462Z,22.10
2023-05-08T05:37:29.237Z,16.00
2023-05-08T05:39:56.987Z,19.80
2023-05-08T05:42:25.380Z,17.60
2023-05-08T05:44:53.183Z,19.30
2023-05-08T05:47:21.081Z,17.00
2023-05-08T05:49:48.991Z,14.90
2023-05-08T05:52:16.872Z,14.90
2023-05-08T05:54:44.629Z,19.40
2023-05-08T05:57:13.975Z,13.60
2023-05-08T05:59:41.814Z,18.80
2023-05-08T06:02:10.672Z,12.30
2023-05-08T06:04:38.560Z,16.70
2023-05-08T06:07:06.430Z,10.30
2023-05-08T06:09:34.222Z,10.30
2023-05-08T06:12:02.751Z,10.40
2023-05-08T06:14:30.547Z,9.80
2023-05-08T06:16:58.644Z,8.90
2023-05-08T06:19:28.592Z,8.90
2023-05-08T06:21:56.402Z,11.00
2023-05-08T06:24:24.400Z,10.20
2023-05-08T06:26:56.238Z,11.00
2023-05-08T06:29:24.335Z,8.00
2023-05-08T06:31:52.256Z,11.20
2023-05-08T06:34:20.199Z,13.50
2023-05-08T06:36:48.038Z,7.80
2023-05-08T06:39:16.053Z,8.40
2023-05-08T06:41:47.544Z,17.00
2023-05-08T06:44:16.196Z,10.40
2023-05-08T06:46:44.135Z,8.50
2023-05-08T06:49:12.046Z,6.90
2023-05-08T06:51:39.923Z,6.30
2023-05-08T06:54:08.342Z,7.70
2023-05-08T06:56:36.290Z,6.80
2023-05-08T06:59:08.249Z,8.30
2023-05-08T07:01:37.587Z,9.50
2023-05-08T07:04:05.765Z,10.20
2023-05-08T07:06:34.337Z,7.70
2023-05-08T07:09:02.367Z,12.50
2023-05-08T07:11:30.304Z,8.50
2023-05-08T07:13:58.171Z,7.70
2023-05-08T07:16:26.097Z,5.10
2023-05-08T07:18:54.041Z,5.60
2023-05-08T07:21:22.114Z,8.30
2023-05-08T07:23:51.770Z,5.60
2023-05-08T07:26:19.659Z,6.00
2023-05-08T07:28:47.699Z,5.10
2023-05-08T07:31:15.670Z,5.40
2023-05-08T07:33:43.530Z,4.60
2023-05-08T07:36:11.462Z,5.30
2023-05-08T07:38:39.488Z,4.00
2023-05-08T07:41:07.922Z,4.90
2023-05-08T07:43:35.867Z,4.50
2023-05-08T07:46:03.857Z,5.60
2023-05-08T07:48:31.693Z,5.70
2023-05-08T07:50:59.638Z,6.40
2023-05-08T07:53:27.548Z,6.50
2023-05-08T07:55:55.338Z,6.40
2023-05-08T07:58:23.877Z,4.70
2023-05-08T08:00:52.098Z,7.50
2023-05-08T08:03:20.092Z,4.80
2023-05-08T08:05:48.068Z,5.00
2023-05-08T08:08:16.121Z,5.80
2023-05-08T08:10:44.049Z,7.30
2023-05-08T08:13:11.976Z,6.30
2023-05-08T08:15:39.874Z,4.40
2023-05-08T08:18:07.895Z,6.10
2023-05-08T08:20:35.846Z,5.80
2023-05-08T08:23:03.925Z,4.60
2023-05-08T08:25:31.934Z,6.70
2023-05-08T08:27:59.768Z,5.80
2023-05-08T08:30:27.693Z,7.00
2023-05-08T08:32:55.716Z,5.60
2023-05-08T08:35:29.379Z,6.10
2023-05-08T08:37:57.451Z,7.70
2023-05-08T08:40:25.460Z,3.60
2023-05-08T08:42:53.321Z,5.70
2023-05-08T08:45:21.261Z,7.00
2023-05-08T08:47:52.389Z,5.10
2023-05-08T08:50:20.711Z,5.50
2023-05-08T08:53:06.556Z,7.00
2023-05-08T08:55:37.829Z,5.50
2023-05-08T08:58:38.995Z,5.20
2023-05-08T09:01:08.102Z,5.70
2023-05-08T09:03:36.079Z,4.30
2023-05-08T09:06:04.261Z,4.70
2023-05-08T09:08:32.679Z,5.40
2023-05-08T09:11:02.041Z,6.50
2023-05-08T09:13:30.050Z,5.80
2023-05-08T09:15:59.349Z,5.70
2023-05-08T09:18:27.174Z,6.90
2023-05-08T09:20:54.947Z,5.30
2023-05-08T09:23:22.910Z,5.10
2023-05-08T09:25:50.848Z,6.90
2023-05-08T09:28:20.708Z,4.50
2023-05-08T09:30:59.678Z,5.60
2023-05-08T09:33:29.435Z,5.40
2023-05-08T09:35:58.062Z,4.10
2023-05-08T09:38:37.426Z,6.00
2023-05-08T09:41:11.277Z,5.50
2023-05-08T09:43:39.576Z,5.00
2023-05-08T09:46:22.943Z,6.00
2023-05-08T09:48:53.196Z,6.20
2023-05-08T09:51:22.332Z,5.50
2023-05-08T09:53:58.973Z,6.20
2023-05-08T09:56:40.007Z,6.40
2023-05-08T09:59:33.963Z,5.60
2023-05-08T10:02:10.456Z,6.90
2023-05-08T10:04:38.322Z,6.20
2023-05-08T10:07:06.367Z,6.50
2023-05-08T10:09:46.764Z,4.90
2023-05-08T10:12:18.341Z,4.40
2023-05-08T10:14:46.885Z,8.60
2023-05-08T10:17:18.827Z,5.40
2023-05-08T10:19:48.627Z,5.20
2023-05-08T10:22:17.740Z,5.10
2023-05-08T10:24:47.044Z,3.70
2023-05-08T10:27:21.130Z,5.70
2023-05-08T10:29:58.126Z,5.00
2023-05-08T10:32:25.992Z,6.20
2023-05-08T10:34:58.842Z,8.90
2023-05-08T10:37:29.911Z,4.60
2023-05-08T10:39:58.502Z,3.60
2023-05-08T10:42:27.730Z,4.70
2023-05-08T10:44:56.269Z,4.30
2023-05-08T10:47:59.812Z,5.40
2023-05-08T10:50:43.500Z,4.00
2023-05-08T10:53:48.212Z,7.50
2023-05-08T10:56:16.237Z,5.40
2023-05-08T10:58:44.039Z,7.80
2023-05-08T11:01:13.760Z,4.90
2023-05-08T11:03:47.214Z,5.80
2023-05-08T11:06:15.364Z,5.00
2023-05-08T11:08:50.085Z,7.70
2023-05-08T11:11:39.639Z,8.10
2023-05-08T11:14:07.395Z,4.70
2023-05-08T11:17:08.591Z,4.80
2023-05-08T11:19:37.351Z,6.60
2023-05-08T11:22:11.162Z,4.80
2023-05-08T11:25:06.944Z,5.20
2023-05-08T11:27:49.850Z,5.10
2023-05-08T11:30:38.140Z,5.00
2023-05-08T11:33:06.279Z,6.30
2023-05-08T11:35:46.231Z,4.40
2023-05-08T11:38:22.851Z,9.70
2023-05-08T11:41:07.827Z,5.10
2023-05-08T11:43:38.591Z,5.30
2023-05-08T11:46:18.698Z,6.00
2023-05-08T11:48:46.917Z,4.70
2023-05-08T11:51:19.304Z,6.80
2023-05-08T11:56:15.514Z,5.70
2023-05-08T11:58:43.664Z,4.30
2023-05-08T12:01:11.516Z,5.30
2023-05-08T12:03:39.354Z,5.20
2023-05-08T12:06:07.619Z,7.60
2023-05-08T12:08:39.285Z,7.20
2023-05-08T12:11:08.011Z,4.50
2023-05-08T12:13:35.944Z,6.60
2023-05-08T12:16:03.845Z,10.10
2023-05-08T12:18:31.606Z,7.90
2023-05-08T12:21:01.069Z,5.00
2023-05-08T12:23:30.016Z,6.70
2023-05-08T12:26:02.042Z,8.10
2023-05-08T12:28:32.421Z,5.80
2023-05-08T12:31:01.312Z,12.50
2023-05-08T12:33:30.517Z,5.70
2023-05-08T12:35:58.765Z,5.50
2023-05-08T12:38:28.005Z,5.10
2023-05-08T12:40:56.189Z,10.10
2023-05-08T12:43:37.957Z,5.10
2023-05-08T12:46:05.900Z,10.00
2023-05-08T12:48:33.887Z,7.80
2023-05-08T12:51:04.123Z,5.50
2023-05-08T12:53:33.161Z,7.70
2023-05-08T12:56:03.575Z,7.10
2023-05-08T12:58:33.977Z,6.50
2023-05-08T13:01:13.290Z,9.00
2023-05-08T13:03:41.971Z,7.20
2023-05-08T13:06:21.392Z,6.20
2023-05-08T13:08:56.128Z,7.20
2023-05-08T13:11:33.438Z,4.90
2023-05-08T13:14:01.531Z,5.00
2023-05-08T13:16:29.459Z,7.20
2023-05-08T13:18:57.329Z,5.80
2023-05-08T13:21:27.658Z,6.30
2023-05-08T13:23:56.974Z,5.60
2023-05-08T13:26:25.772Z,5.30
2023-05-08T13:28:56.281Z,4.90
2023-05-08T13:31:24.852Z,5.00
2023-05-08T13:33:52.767Z,7.70
2023-05-08T13:36:20.949Z,4.30
2023-05-08T13:38:49.182Z,5.70
2023-05-08T13:41:17.241Z,5.10
2023-05-08T13:43:45.666Z,6.50
2023-05-08T13:46:13.754Z,5.60
2023-05-08T13:48:41.716Z,6.90
2023-05-08T13:51:13.184Z,5.90
2023-05-08T13:53:45.377Z,8.50
2023-05-08T13:56:13.286Z,7.20
2023-05-08T13:58:41.321Z,6.10
2023-05-08T14:01:25.017Z,5.90
2023-05-08T14:03:55.571Z,5.50
2023-05-08T14:06:24.038Z,6.20
2023-05-08T14:08:55.438Z,5.10
2023-05-08T14:11:25.597Z,7.20
2023-05-08T14:13:53.676Z,8.50
2023-05-08T14:16:21.923Z,10.10
2023-05-08T14:18:49.907Z,9.40
2023-05-08T14:21:17.941Z,5.90
2023-05-08T14:23:45.790Z,4.80
2023-05-08T14:26:13.885Z,9.00
2023-05-08T14:28:41.744Z,6.10
2023-05-08T14:31:09.617Z,6.00
2023-05-08T14:33:40.102Z,5.70
2023-05-08T14:36:08.633Z,5.80
2023-05-08T14:38:36.724Z,7.60
2023-05-08T14:41:05.058Z,7.90
2023-05-08T14:43:32.996Z,5.90
2023-05-08T14:46:01.227Z,8.50
2023-05-08T14:48:29.149Z,7.00
2023-05-08T14:50:57.498Z,6.40
2023-05-08T14:53:25.521Z,10.00
2023-05-08T14:55:53.915Z,8.00
2023-05-08T14:58:22.376Z,5.20
2023-05-08T15:00:50.272Z,6.60
2023-05-08T15:03:18.715Z,10.00
2023-05-08T15:05:47.299Z,6.30
2023-05-08T15:08:15.244Z,8.20
2023-05-08T15:10:43.254Z,6.50
2023-05-08T15:13:11.172Z,7.00
2023-05-08T15:15:39.070Z,7.20
2023-05-08T15:18:07.017Z,9.30
2023-05-08T15:20:34.931Z,6.80
2023-05-08T15:23:02.788Z,6.10
2023-05-08T15:25:30.621Z,4.40
2023-05-08T15:28:00.737Z,5.10
2023-05-08T15:30:29.157Z,8.80
2023-05-08T15:32:57.082Z,6.30
2023-05-08T15:35:24.985Z,5.30
2023-05-08T15:37:52.872Z,6.50
2023-05-08T15:40:20.702Z,6.70
2023-05-08T15:42:48.669Z,5.10
2023-05-08T15:45:16.739Z,6.20
2023-05-08T15:47:44.654Z,9.90
2023-05-08T15:50:12.617Z,6.90
2023-05-08T15:52:40.414Z,7.60
2023-05-08T15:55:08.645Z,5.90
2023-05-08T15:57:36.395Z,6.10
2023-05-08T16:00:04.767Z,9.20
2023-05-08T16:02:32.781Z,6.70
2023-05-08T16:05:00.619Z,5.80
2023-05-08T16:07:28.367Z,7.00
2023-05-08T16:09:56.117Z,13.00
2023-05-08T16:12:24.066Z,7.60
2023-05-08T16:14:51.888Z,8.30
2023-05-08T16:17:19.748Z,7.50
2023-05-08T16:19:47.636Z,7.00
2023-05-08T16:22:15.501Z,7.30
2023-05-08T16:24:43.276Z,7.00
2023-05-08T16:27:11.405Z,8.50
2023-05-08T16:29:39.335Z,6.60
2023-05-08T16:32:07.144Z,8.10
2023-05-08T16:34:35.314Z,9.10
2023-05-08T16:37:03.205Z,7.00
2023-05-08T16:39:31.225Z,7.10
2023-05-08T16:41:59.093Z,10.60
2023-05-08T16:44:26.881Z,7.80
2023-05-08T16:46:54.816Z,6.40
2023-05-08T16:49:22.729Z,7.10
2023-05-08T16:51:50.780Z,9.00
2023-05-08T16:54:18.492Z,10.00
2023-05-08T16:56:46.249Z,7.30
2023-05-08T16:59:14.076Z,7.80
2023-05-08T17:01:42.133Z,13.70
2023-05-08T17:04:09.980Z,8.20
2023-05-08T17:06:40.478Z,6.90
2023-05-08T17:09:08.398Z,7.10
2023-05-08T17:11:36.689Z,9.70
2023-05-08T17:14:04.698Z,6.70
2023-05-08T17:16:32.571Z,7.10
2023-05-08T17:19:00.624Z,8.20
2023-05-08T17:21:30.263Z,14.50
2023-05-08T17:24:01.506Z,8.80
2023-05-08T17:26:33.499Z,12.60
2023-05-08T17:29:01.476Z,7.40
2023-05-08T17:31:29.328Z,9.70
2023-05-08T17:33:57.394Z,14.60
2023-05-08T17:36:25.455Z,18.90
2023-05-08T17:38:53.415Z,11.70
2023-05-08T17:41:22.357Z,14.30
2023-05-08T17:43:53.749Z,13.20
2023-05-08T17:46:21.900Z,10.10
2023-05-08T17:48:49.895Z,8.60
2023-05-08T17:51:17.950Z,14.80
2023-05-08T17:53:46.171Z,9.50
2023-05-08T17:56:20.565Z,11.70
2023-05-08T17:59:02.254Z,8.40
2023-05-08T18:01:37.553Z,10.10
2023-05-08T18:04:05.845Z,9.40
2023-05-08T18:06:33.970Z,9.30
2023-05-08T18:09:02.504Z,13.20
2023-05-08T18:11:32.728Z,10.90
2023-05-08T18:14:00.785Z,9.50
2023-05-08T18:16:28.850Z,14.40
2023-05-08T18:18:56.737Z,24.20
2023-05-08T18:21:24.763Z,29.60
2023-05-08T18:23:52.710Z,29.10
2023-05-08T18:26:22.993Z,24.10
2023-05-08T18:28:50.942Z,18.60
2023-05-08T18:31:18.731Z,15.80
2023-05-08T18:33:46.737Z,19.50
2023-05-08T18:36:14.697Z,21.10
2023-05-08T18:38:42.522Z,13.90
2023-05-08T18:41:10.588Z,15.90
2023-05-08T18:43:38.630Z,16.00
2023-05-08T18:46:13.544Z,15.40
2023-05-08T18:48:41.540Z,10.70
2023-05-08T18:51:10.553Z,15.70
2023-05-08T18:53:39.109Z,10.90
2023-05-08T18:56:07.279Z,13.00
2023-05-08T18:58:35.730Z,16.60
2023-05-08T19:01:03.811Z,22.70
2023-05-08T19:03:32.284Z,147.00
2023-05-08T19:06:00.487Z,65.50
2023-05-08T19:08:28.546Z,29.20
2023-05-08T19:10:56.501Z,26.50
2023-05-08T19:13:24.386Z,27.30
2023-05-08T19:15:54.299Z,37.50
2023-05-08T19:18:25.348Z,34.90
2023-05-08T19:20:53.240Z,43.20
2023-05-08T19:23:21.388Z,44.40
2023-05-08T19:25:49.302Z,44.10
2023-05-08T19:28:17.266Z,51.10
2023-05-08T19:30:45.239Z,85.80
2023-05-08T19:33:13.094Z,79.30
2023-05-08T19:35:40.877Z,79.30
2023-05-08T19:38:12.048Z,76.00
2023-05-08T19:40:54.840Z,74.30
2023-05-08T19:43:28.145Z,75.10
2023-05-08T19:45:56.190Z,86.50
2023-05-08T19:48:27.228Z,76.50
2023-05-08T19:50:55.529Z,80.60
2023-05-08T19:53:24.188Z,95.00
2023-05-08T19:55:52.366Z,117.50
2023-05-08T19:58:20.168Z,101.60
2023-05-08T20:03:19.812Z,115.50
2023-05-08T20:05:47.856Z,106.30
2023-05-08T20:08:15.756Z,99.90
2023-05-08T20:10:43.757Z,111.10
2023-05-08T20:13:11.622Z,105.60
2023-05-08T20:15:39.443Z,94.80
2023-05-08T20:18:07.355Z,103.00
2023-05-08T20:20:35.339Z,103.70
2023-05-08T20:23:03.351Z,114.90
2023-05-08T20:25:31.193Z,104.00
2023-05-08T20:27:59.607Z,68.60
2023-05-08T20:30:27.539Z,70.80
2023-05-08T20:32:55.463Z,49.90
2023-05-08T20:35:26.130Z,65.60
2023-05-08T20:37:53.904Z,60.30
2023-05-08T20:40:21.746Z,50.70
2023-05-08T20:42:49.722Z,46.60
2023-05-08T20:45:17.730Z,49.90
2023-05-08T20:47:45.572Z,42.70
2023-05-08T20:50:16.563Z,38.50
2023-05-08T20:52:44.836Z,37.90
2023-05-08T20:55:12.955Z,53.40
2023-05-08T20:57:41.116Z,52.00
2023-05-08T21:00:09.544Z,62.40
2023-05-08T21:02:40.070Z,79.70
2023-05-08T21:05:09.140Z,84.70
2023-05-08T21:07:37.288Z,96.60
2023-05-08T21:10:06.090Z,97.50
2023-05-08T21:12:33.990Z,97.70
2023-05-08T21:15:01.931Z,106.50
2023-05-08T21:17:29.765Z,87.90
2023-05-08T21:19:57.674Z,82.30
2023-05-08T21:22:26.684Z,52.20
2023-05-08T21:25:12.512Z,34.80
2023-05-08T21:27:43.603Z,35.10
2023-05-08T21:30:15.471Z,34.10
2023-05-08T21:32:46.854Z,25.70
2023-05-08T21:35:15.903Z,24.20
2023-05-08T21:37:44.093Z,22.40
2023-05-08T21:40:12.267Z,25.70
2023-05-08T21:42:40.307Z,26.90
2023-05-08T21:45:08.782Z,22.80
2023-05-08T21:47:36.653Z,24.20
2023-05-08T21:50:04.878Z,24.40
2023-05-08T21:52:32.670Z,23.00
2023-05-08T21:55:00.446Z,29.80
2023-05-08T21:57:28.319Z,31.50
2023-05-08T21:59:56.136Z,25.60
2023-05-08T22:02:23.958Z,30.30
2023-05-08T22:04:51.845Z,29.50
2023-05-08T22:07:21.137Z,29.30
2023-05-08T22:09:49.028Z,38.50
2023-05-08T22:12:16.877Z,33.80
2023-05-08T22:14:44.734Z,36.10
2023-05-08T22:17:12.676Z,36.20
2023-05-08T22:19:40.690Z,31.40
2023-05-08T22:22:09.388Z,28.00
2023-05-08T22:24:37.438Z,29.80
2023-05-08T22:27:05.477Z,29.80
2023-05-08T22:29:33.322Z,29.80
2023-05-08T22:32:02.202Z,34.90
2023-05-08T22:34:30.031Z,33.80
2023-05-08T22:36:57.852Z,31.10
2023-05-08T22:39:26.242Z,28.10
2023-05-08T22:41:54.298Z,27.90
2023-05-08T22:44:22.387Z,34.20
2023-05-08T22:46:50.370Z,33.10
2023-05-08T22:49:18.220Z,21.00
2023-05-08T22:51:46.144Z,29.90
2023-05-08T22:54:13.876Z,35.40
2023-05-08T22:56:41.689Z,26.50
2023-05-08T22:59:09.510Z,28.20
2023-05-08T23:01:37.343Z,30.30
2023-05-08T23:04:05.747Z,31.80
2023-05-08T23:06:33.832Z,34.40
2023-05-08T23:09:01.650Z,37.00
2023-05-08T23:11:29.446Z,41.30
2023-05-08T23:13:57.227Z,40.60
2023-05-08T23:16:25.037Z,41.10
2023-05-08T23:18:53.887Z,36.50
2023-05-08T23:21:21.930Z,37.20
2023-05-08T23:23:49.882Z,34.50
2023-05-08T23:26:18.314Z,34.80
2023-05-08T23:28:46.412Z,38.70
2023-05-08T23:31:14.215Z,41.90
2023-05-08T23:33:42.039Z,36.90
2023-05-08T23:36:10.139Z,34.80
2023-05-08T23:38:37.954Z,37.90
2023-05-08T23:41:05.866Z,35.00
2023-05-08T23:43:33.781Z,32.90
2023-05-08T23:46:01.642Z,33.90
2023-05-08T23:48:29.536Z,32.90
2023-05-08T23:50:57.328Z,32.20
2023-05-08T23:53:25.152Z,31.20
2023-05-08T23:55:53.204Z,29.30
2023-05-08T23:58:21.010Z,33.10
